sensor_id;sensor_type;location;lat;lon;timestamp;P1;durP1;ratioP1;P2;durP2;ratioP2
2854;SDS011;1435;49.472;10.940;2023-04-24T00:00:30;2.17;;;1.90;;
2854;SDS011;1435;49.472;10.940;2023-04-24T00:05:33;1.93;;;1.63;;
2854;SDS011;1435;49.472;10.940;2023-04-24T00:10:35;2.00;;;1.80;;
2854;SDS011;1435;49.472;10.940;2023-04-24T00:15:37;4.37;;;2.30;;
2854;SDS011;1435;49.472;10.940;2023-04-24T00:20:40;2.13;;;1.93;;
2854;SDS011;1435;49.472;10.940;2023-04-24T00:25:43;2.00;;;1.90;;
2854;SDS011;1435;49.472;10.940;2023-04-24T00:30:45;1.90;;;1.80;;
2854;SDS011;1435;49.472;10.940;2023-04-24T00:35:48;1.77;;;1.63;;
2854;SDS011;1435;49.472;10.940;2023-04-24T00:40:49;2.30;;;2.10;;
2854;SDS011;1435;49.472;10.940;2023-04-24T00:45:51;2.30;;;1.83;;
2854;SDS011;1435;49.472;10.940;2023-04-24T00:50:54;3.33;;;1.90;;
2854;SDS011;1435;49.472;10.940;2023-04-24T00:55:57;1.40;;;1.30;;
2854;SDS011;1435;49.472;10.940;2023-04-24T01:00:59;3.53;;;1.70;;
2854;SDS011;1435;49.472;10.940;2023-04-24T01:06:04;2.40;;;1.57;;
2854;SDS011;1435;49.472;10.940;2023-04-24T01:11:06;1.70;;;1.37;;
2854;SDS011;1435;49.472;10.940;2023-04-24T01:16:08;1.40;;;1.30;;
2854;SDS011;1435;49.472;10.940;2023-04-24T01:21:11;1.80;;;1.70;;
2854;SDS011;1435;49.472;10.940;2023-04-24T01:26:17;1.60;;;1.50;;
2854;SDS011;1435;49.472;10.940;2023-04-24T01:31:20;1.80;;;1.70;;
2854;SDS011;1435;49.472;10.940;2023-04-24T01:36:22;1.67;;;1.20;;
2854;SDS011;1435;49.472;10.940;2023-04-24T01:41:28;1.87;;;1.33;;
2854;SDS011;1435;49.472;10.940;2023-04-24T01:46:31;4.20;;;2.50;;
2854;SDS011;1435;49.472;10.940;2023-04-24T01:51:34;1.27;;;1.10;;
2854;SDS011;1435;49.472;10.940;2023-04-24T01:56:37;1.97;;;1.17;;
2854;SDS011;1435;49.472;10.940;2023-04-24T02:01:41;2.20;;;1.23;;
2854;SDS011;1435;49.472;10.940;2023-04-24T02:06:43;1.17;;;1.07;;
2854;SDS011;1435;49.472;10.940;2023-04-24T02:11:46;1.13;;;1.10;;
2854;SDS011;1435;49.472;10.940;2023-04-24T02:16:48;1.50;;;1.40;;
2854;SDS011;1435;49.472;10.940;2023-04-24T02:21:50;1.47;;;1.37;;
2854;SDS011;1435;49.472;10.940;2023-04-24T02:26:53;1.40;;;1.30;;
2854;SDS011;1435;49.472;10.940;2023-04-24T02:31:54;2.40;;;2.20;;
2854;SDS011;1435;49.472;10.940;2023-04-24T02:36:56;1.13;;;0.80;;
2854;SDS011;1435;49.472;10.940;2023-04-24T02:41:59;1.40;;;1.30;;
2854;SDS011;1435;49.472;10.940;2023-04-24T02:47:01;2.03;;;1.20;;
2854;SDS011;1435;49.472;10.940;2023-04-24T02:52:03;1.10;;;1.00;;
2854;SDS011;1435;49.472;10.940;2023-04-24T02:57:06;1.33;;;1.23;;
2854;SDS011;1435;49.472;10.940;2023-04-24T03:02:08;1.23;;;1.13;;
2854;SDS011;1435;49.472;10.940;2023-04-24T03:07:09;1.20;;;1.10;;
2854;SDS011;1435;49.472;10.940;2023-04-24T03:12:12;1.00;;;1.00;;
2854;SDS011;1435;49.472;10.940;2023-04-24T03:17:14;1.30;;;1.20;;
2854;SDS011;1435;49.472;10.940;2023-04-24T03:22:16;1.23;;;1.23;;
2854;SDS011;1435;49.472;10.940;2023-04-24T03:27:19;1.13;;;1.00;;
2854;SDS011;1435;49.472;10.940;2023-04-24T03:32:20;1.37;;;1.27;;
2854;SDS011;1435;49.472;10.940;2023-04-24T03:37:23;1.70;;;1.60;;
2854;SDS011;1435;49.472;10.940;2023-04-24T03:42:26;5.50;;;1.20;;
2854;SDS011;1435;49.472;10.940;2023-04-24T03:47:27;3.80;;;1.10;;
2854;SDS011;1435;49.472;10.940;2023-04-24T03:52:29;2.23;;;1.50;;
2854;SDS011;1435;49.472;10.940;2023-04-24T03:57:32;1.57;;;1.40;;
2854;SDS011;1435;49.472;10.940;2023-04-24T04:02:34;1.60;;;1.30;;
2854;SDS011;1435;49.472;10.940;2023-04-24T04:07:35;1.30;;;1.20;;
2854;SDS011;1435;49.472;10.940;2023-04-24T04:12:38;1.20;;;1.10;;
2854;SDS011;1435;49.472;10.940;2023-04-24T04:17:40;2.07;;;1.27;;
2854;SDS011;1435;49.472;10.940;2023-04-24T04:22:42;3.07;;;1.80;;
2854;SDS011;1435;49.472;10.940;2023-04-24T04:27:45;1.53;;;1.00;;
2854;SDS011;1435;49.472;10.940;2023-04-24T04:32:47;2.20;;;2.00;;
2854;SDS011;1435;49.472;10.940;2023-04-24T04:37:49;2.80;;;1.50;;
2854;SDS011;1435;49.472;10.940;2023-04-24T04:42:52;3.70;;;1.70;;
2854;SDS011;1435;49.472;10.940;2023-04-24T04:47:54;2.27;;;1.63;;
2854;SDS011;1435;49.472;10.940;2023-04-24T04:52:56;2.13;;;1.93;;
2854;SDS011;1435;49.472;10.940;2023-04-24T04:57:59;1.77;;;1.20;;
2854;SDS011;1435;49.472;10.940;2023-04-24T05:03:01;3.23;;;2.67;;
2854;SDS011;1435;49.472;10.940;2023-04-24T05:08:03;1.70;;;1.60;;
2854;SDS011;1435;49.472;10.940;2023-04-24T05:13:06;2.37;;;1.50;;
2854;SDS011;1435;49.472;10.940;2023-04-24T05:18:07;1.77;;;1.67;;
2854;SDS011;1435;49.472;10.940;2023-04-24T05:23:09;1.77;;;1.67;;
2854;SDS011;1435;49.472;10.940;2023-04-24T05:28:13;2.30;;;2.10;;
2854;SDS011;1435;49.472;10.940;2023-04-24T05:33:15;3.90;;;1.80;;
2854;SDS011;1435;49.472;10.940;2023-04-24T05:38:17;2.97;;;2.10;;
2854;SDS011;1435;49.472;10.940;2023-04-24T05:43:20;2.53;;;1.73;;
2854;SDS011;1435;49.472;10.940;2023-04-24T05:48:22;2.27;;;1.80;;
2854;SDS011;1435;49.472;10.940;2023-04-24T05:53:24;1.70;;;1.60;;
2854;SDS011;1435;49.472;10.940;2023-04-24T05:58:27;2.20;;;1.80;;
2854;SDS011;1435;49.472;10.940;2023-04-24T06:03:28;4.10;;;1.57;;
2854;SDS011;1435;49.472;10.940;2023-04-24T06:08:30;1.73;;;1.40;;
2854;SDS011;1435;49.472;10.940;2023-04-24T06:13:34;2.30;;;1.17;;
2854;SDS011;1435;49.472;10.940;2023-04-24T06:18:35;1.97;;;1.33;;
2854;SDS011;1435;49.472;10.940;2023-04-24T06:23:37;4.80;;;1.93;;
2854;SDS011;1435;49.472;10.940;2023-04-24T06:28:40;1.60;;;1.50;;
2854;SDS011;1435;49.472;10.940;2023-04-24T06:33:42;1.77;;;1.33;;
2854;SDS011;1435;49.472;10.940;2023-04-24T06:38:43;1.10;;;0.97;;
2854;SDS011;1435;49.472;10.940;2023-04-24T06:43:48;1.10;;;1.00;;
2854;SDS011;1435;49.472;10.940;2023-04-24T06:48:49;2.60;;;1.30;;
2854;SDS011;1435;49.472;10.940;2023-04-24T06:53:51;1.80;;;1.23;;
2854;SDS011;1435;49.472;10.940;2023-04-24T06:58:55;1.20;;;1.00;;
2854;SDS011;1435;49.472;10.940;2023-04-24T07:03:56;2.53;;;1.20;;
2854;SDS011;1435;49.472;10.940;2023-04-24T07:08:59;1.43;;;1.10;;
2854;SDS011;1435;49.472;10.940;2023-04-24T07:14:03;1.60;;;1.50;;
2854;SDS011;1435;49.472;10.940;2023-04-24T07:19:04;1.27;;;1.17;;
2854;SDS011;1435;49.472;10.940;2023-04-24T07:24:07;1.20;;;1.10;;
2854;SDS011;1435;49.472;10.940;2023-04-24T07:29:12;2.50;;;1.37;;
2854;SDS011;1435;49.472;10.940;2023-04-24T07:34:14;1.53;;;1.43;;
2854;SDS011;1435;49.472;10.940;2023-04-24T07:39:15;1.77;;;1.63;;
2854;SDS011;1435;49.472;10.940;2023-04-24T07:44:18;2.90;;;2.00;;
2854;SDS011;1435;49.472;10.940;2023-04-24T07:49:20;1.77;;;1.67;;
2854;SDS011;1435;49.472;10.940;2023-04-24T07:54:22;2.87;;;1.97;;
2854;SDS011;1435;49.472;10.940;2023-04-24T07:59:25;1.70;;;1.60;;
2854;SDS011;1435;49.472;10.940;2023-04-24T08:04:26;2.20;;;2.00;;
2854;SDS011;1435;49.472;10.940;2023-04-24T08:09:28;1.90;;;1.70;;
2854;SDS011;1435;49.472;10.940;2023-04-24T08:14:31;2.33;;;2.17;;
2854;SDS011;1435;49.472;10.940;2023-04-24T08:19:32;2.00;;;1.90;;
2854;SDS011;1435;49.472;10.940;2023-04-24T08:24:34;2.67;;;2.07;;
2854;SDS011;1435;49.472;10.940;2023-04-24T08:29:37;2.70;;;2.50;;
2854;SDS011;1435;49.472;10.940;2023-04-24T08:34:39;4.27;;;2.70;;
2854;SDS011;1435;49.472;10.940;2023-04-24T08:39:41;4.17;;;2.80;;
2854;SDS011;1435;49.472;10.940;2023-04-24T08:44:44;2.83;;;2.53;;
2854;SDS011;1435;49.472;10.940;2023-04-24T08:49:46;3.47;;;1.93;;
2854;SDS011;1435;49.472;10.940;2023-04-24T08:54:50;2.60;;;2.40;;
2854;SDS011;1435;49.472;10.940;2023-04-24T08:59:54;2.70;;;2.50;;
2854;SDS011;1435;49.472;10.940;2023-04-24T09:04:57;7.30;;;3.20;;
2854;SDS011;1435;49.472;10.940;2023-04-24T09:10:00;2.77;;;2.57;;
2854;SDS011;1435;49.472;10.940;2023-04-24T09:15:04;2.50;;;2.20;;
2854;SDS011;1435;49.472;10.940;2023-04-24T09:20:09;4.57;;;2.23;;
2854;SDS011;1435;49.472;10.940;2023-04-24T09:25:11;3.03;;;2.80;;
2854;SDS011;1435;49.472;10.940;2023-04-24T09:30:14;3.20;;;2.90;;
2854;SDS011;1435;49.472;10.940;2023-04-24T09:35:22;4.83;;;2.57;;
2854;SDS011;1435;49.472;10.940;2023-04-24T09:40:25;2.50;;;2.27;;
2854;SDS011;1435;49.472;10.940;2023-04-24T09:45:28;2.80;;;1.70;;
2854;SDS011;1435;49.472;10.940;2023-04-24T09:50:36;1.33;;;1.20;;
2854;SDS011;1435;49.472;10.940;2023-04-24T09:55:38;2.23;;;1.43;;
2854;SDS011;1435;49.472;10.940;2023-04-24T10:00:42;2.07;;;1.60;;
2854;SDS011;1435;49.472;10.940;2023-04-24T10:05:47;2.77;;;2.10;;
2854;SDS011;1435;49.472;10.940;2023-04-24T10:10:48;1.50;;;1.40;;
2854;SDS011;1435;49.472;10.940;2023-04-24T10:15:51;1.67;;;1.57;;
2854;SDS011;1435;49.472;10.940;2023-04-24T10:20:53;1.10;;;1.10;;
2854;SDS011;1435;49.472;10.940;2023-04-24T10:25:56;1.20;;;1.10;;
2854;SDS011;1435;49.472;10.940;2023-04-24T10:30:59;1.83;;;1.60;;
2854;SDS011;1435;49.472;10.940;2023-04-24T10:36:02;1.87;;;1.10;;
2854;SDS011;1435;49.472;10.940;2023-04-24T10:41:07;2.37;;;1.60;;
2854;SDS011;1435;49.472;10.940;2023-04-24T10:46:19;1.30;;;1.20;;
2854;SDS011;1435;49.472;10.940;2023-04-24T10:51:21;1.30;;;1.20;;
2854;SDS011;1435;49.472;10.940;2023-04-24T10:56:24;1.10;;;1.00;;
2854;SDS011;1435;49.472;10.940;2023-04-24T11:01:28;1.03;;;0.93;;
2854;SDS011;1435;49.472;10.940;2023-04-24T11:06:30;1.23;;;1.17;;
2854;SDS011;1435;49.472;10.940;2023-04-24T11:11:35;1.40;;;1.30;;
2854;SDS011;1435;49.472;10.940;2023-04-24T11:16:44;1.40;;;1.30;;
2854;SDS011;1435;49.472;10.940;2023-04-24T11:21:56;2.07;;;1.40;;
2854;SDS011;1435;49.472;10.940;2023-04-24T11:27:05;2.40;;;2.20;;
2854;SDS011;1435;49.472;10.940;2023-04-24T11:32:16;1.97;;;1.87;;
2854;SDS011;1435;49.472;10.940;2023-04-24T11:37:26;2.00;;;1.73;;
2854;SDS011;1435;49.472;10.940;2023-04-24T11:42:29;2.37;;;2.17;;
2854;SDS011;1435;49.472;10.940;2023-04-24T11:47:36;2.30;;;1.97;;
2854;SDS011;1435;49.472;10.940;2023-04-24T11:52:38;2.80;;;1.50;;
2854;SDS011;1435;49.472;10.940;2023-04-24T11:57:42;2.17;;;1.97;;
2854;SDS011;1435;49.472;10.940;2023-04-24T12:02:46;1.97;;;1.87;;
2854;SDS011;1435;49.472;10.940;2023-04-24T12:07:49;1.97;;;1.57;;
2854;SDS011;1435;49.472;10.940;2023-04-24T12:12:50;2.20;;;2.00;;
2854;SDS011;1435;49.472;10.940;2023-04-24T12:17:54;2.43;;;2.23;;
2854;SDS011;1435;49.472;10.940;2023-04-24T12:22:58;3.37;;;1.83;;
2854;SDS011;1435;49.472;10.940;2023-04-24T12:28:08;2.13;;;1.80;;
2854;SDS011;1435;49.472;10.940;2023-04-24T12:33:13;1.90;;;1.80;;
2854;SDS011;1435;49.472;10.940;2023-04-24T12:38:21;2.30;;;1.70;;
2854;SDS011;1435;49.472;10.940;2023-04-24T12:43:24;3.57;;;1.80;;
2854;SDS011;1435;49.472;10.940;2023-04-24T12:48:27;2.57;;;1.70;;
2854;SDS011;1435;49.472;10.940;2023-04-24T12:53:29;2.33;;;1.67;;
2854;SDS011;1435;49.472;10.940;2023-04-24T12:58:31;2.03;;;1.83;;
2854;SDS011;1435;49.472;10.940;2023-04-24T13:03:34;1.73;;;1.63;;
2854;SDS011;1435;49.472;10.940;2023-04-24T13:08:36;4.80;;;2.27;;
2854;SDS011;1435;49.472;10.940;2023-04-24T13:13:37;2.10;;;1.90;;
2854;SDS011;1435;49.472;10.940;2023-04-24T13:18:41;2.47;;;1.60;;
2854;SDS011;1435;49.472;10.940;2023-04-24T13:23:42;2.00;;;1.90;;
2854;SDS011;1435;49.472;10.940;2023-04-24T13:28:44;2.30;;;2.10;;
2854;SDS011;1435;49.472;10.940;2023-04-24T13:33:47;3.97;;;1.90;;
2854;SDS011;1435;49.472;10.940;2023-04-24T13:38:49;1.37;;;1.27;;
2854;SDS011;1435;49.472;10.940;2023-04-24T13:43:50;4.50;;;2.30;;
2854;SDS011;1435;49.472;10.940;2023-04-24T13:48:53;2.60;;;2.40;;
2854;SDS011;1435;49.472;10.940;2023-04-24T13:53:55;1.97;;;1.77;;
2854;SDS011;1435;49.472;10.940;2023-04-24T13:58:57;4.43;;;2.40;;
2854;SDS011;1435;49.472;10.940;2023-04-24T14:04:00;3.00;;;2.30;;
2854;SDS011;1435;49.472;10.940;2023-04-24T14:09:01;2.47;;;2.27;;
2854;SDS011;1435;49.472;10.940;2023-04-24T14:14:03;3.07;;;2.47;;
2854;SDS011;1435;49.472;10.940;2023-04-24T14:19:07;2.70;;;2.50;;
2854;SDS011;1435;49.472;10.940;2023-04-24T14:24:09;2.20;;;2.10;;
2854;SDS011;1435;49.472;10.940;2023-04-24T14:29:10;2.77;;;2.27;;
2854;SDS011;1435;49.472;10.940;2023-04-24T14:34:14;2.37;;;2.10;;
2854;SDS011;1435;49.472;10.940;2023-04-24T14:39:16;3.23;;;1.60;;
2854;SDS011;1435;49.472;10.940;2023-04-24T14:44:17;1.87;;;1.77;;
2854;SDS011;1435;49.472;10.940;2023-04-24T14:49:20;2.23;;;2.10;;
2854;SDS011;1435;49.472;10.940;2023-04-24T14:54:22;2.17;;;1.97;;
2854;SDS011;1435;49.472;10.940;2023-04-24T14:59:25;2.60;;;2.40;;
2854;SDS011;1435;49.472;10.940;2023-04-24T15:04:29;3.33;;;2.60;;
2854;SDS011;1435;49.472;10.940;2023-04-24T15:09:31;3.40;;;2.40;;
2854;SDS011;1435;49.472;10.940;2023-04-24T15:14:33;2.97;;;2.77;;
2854;SDS011;1435;49.472;10.940;2023-04-24T15:19:36;4.03;;;2.23;;
2854;SDS011;1435;49.472;10.940;2023-04-24T15:24:37;2.70;;;2.50;;
2854;SDS011;1435;49.472;10.940;2023-04-24T15:29:39;4.47;;;3.17;;
2854;SDS011;1435;49.472;10.940;2023-04-24T15:34:42;2.80;;;2.60;;
2854;SDS011;1435;49.472;10.940;2023-04-24T15:39:44;2.70;;;2.50;;
2854;SDS011;1435;49.472;10.940;2023-04-24T15:44:47;11.90;;;3.00;;
2854;SDS011;1435;49.472;10.940;2023-04-24T15:49:50;2.87;;;2.67;;
2854;SDS011;1435;49.472;10.940;2023-04-24T15:54:52;3.33;;;3.03;;
2854;SDS011;1435;49.472;10.940;2023-04-24T15:59:54;4.90;;;2.90;;
2854;SDS011;1435;49.472;10.940;2023-04-24T16:04:58;3.50;;;3.00;;
2854;SDS011;1435;49.472;10.940;2023-04-24T16:10:00;4.63;;;2.67;;
2854;SDS011;1435;49.472;10.940;2023-04-24T16:15:02;3.13;;;2.83;;
2854;SDS011;1435;49.472;10.940;2023-04-24T16:20:06;3.57;;;3.27;;
2854;SDS011;1435;49.472;10.940;2023-04-24T16:25:08;3.10;;;2.80;;
2854;SDS011;1435;49.472;10.940;2023-04-24T16:30:11;2.60;;;2.40;;
2854;SDS011;1435;49.472;10.940;2023-04-24T16:35:14;3.23;;;2.80;;
2854;SDS011;1435;49.472;10.940;2023-04-24T16:40:16;3.20;;;3.00;;
2854;SDS011;1435;49.472;10.940;2023-04-24T16:45:18;3.73;;;2.93;;
2854;SDS011;1435;49.472;10.940;2023-04-24T16:50:21;3.90;;;2.93;;
2854;SDS011;1435;49.472;10.940;2023-04-24T16:55:23;3.17;;;2.87;;
2854;SDS011;1435;49.472;10.940;2023-04-24T17:00:25;3.73;;;3.20;;
2854;SDS011;1435;49.472;10.940;2023-04-24T17:05:29;4.07;;;3.33;;
2854;SDS011;1435;49.472;10.940;2023-04-24T17:10:30;3.80;;;2.97;;
2854;SDS011;1435;49.472;10.940;2023-04-24T17:15:32;3.50;;;3.00;;
2854;SDS011;1435;49.472;10.940;2023-04-24T17:20:35;4.07;;;3.77;;
2854;SDS011;1435;49.472;10.940;2023-04-24T17:25:37;3.03;;;2.80;;
2854;SDS011;1435;49.472;10.940;2023-04-24T17:30:39;3.30;;;2.90;;
2854;SDS011;1435;49.472;10.940;2023-04-24T17:35:42;3.30;;;3.00;;
2854;SDS011;1435;49.472;10.940;2023-04-24T17:40:43;3.50;;;2.60;;
2854;SDS011;1435;49.472;10.940;2023-04-24T17:45:46;3.30;;;2.67;;
2854;SDS011;1435;49.472;10.940;2023-04-24T17:50:49;2.27;;;1.93;;
2854;SDS011;1435;49.472;10.940;2023-04-24T17:55:51;2.73;;;2.53;;
2854;SDS011;1435;49.472;10.940;2023-04-24T18:00:56;2.03;;;1.90;;
2854;SDS011;1435;49.472;10.940;2023-04-24T18:05:59;3.23;;;2.30;;
2854;SDS011;1435;49.472;10.940;2023-04-24T18:11:01;2.50;;;2.30;;
2854;SDS011;1435;49.472;10.940;2023-04-24T18:16:03;2.53;;;2.33;;
2854;SDS011;1435;49.472;10.940;2023-04-24T18:21:06;2.83;;;2.60;;
2854;SDS011;1435;49.472;10.940;2023-04-24T18:26:08;2.83;;;2.63;;
2854;SDS011;1435;49.472;10.940;2023-04-24T18:31:09;2.73;;;2.53;;
2854;SDS011;1435;49.472;10.940;2023-04-24T18:36:13;2.77;;;2.57;;
2854;SDS011;1435;49.472;10.940;2023-04-24T18:41:14;2.80;;;2.60;;
2854;SDS011;1435;49.472;10.940;2023-04-24T18:46:16;3.50;;;2.93;;
2854;SDS011;1435;49.472;10.940;2023-04-24T18:51:19;2.80;;;2.60;;
2854;SDS011;1435;49.472;10.940;2023-04-24T18:56:21;3.37;;;2.77;;
2854;SDS011;1435;49.472;10.940;2023-04-24T19:01:23;2.90;;;2.60;;
2854;SDS011;1435;49.472;10.940;2023-04-24T19:06:26;3.47;;;3.17;;
2854;SDS011;1435;49.472;10.940;2023-04-24T19:11:28;3.97;;;2.73;;
2854;SDS011;1435;49.472;10.940;2023-04-24T19:16:30;3.73;;;3.27;;
2854;SDS011;1435;49.472;10.940;2023-04-24T19:21:33;3.80;;;3.20;;
2854;SDS011;1435;49.472;10.940;2023-04-24T19:26:35;3.30;;;3.00;;
2854;SDS011;1435;49.472;10.940;2023-04-24T19:31:36;3.83;;;3.53;;
2854;SDS011;1435;49.472;10.940;2023-04-24T19:36:39;3.63;;;3.30;;
2854;SDS011;1435;49.472;10.940;2023-04-24T19:41:42;3.40;;;3.10;;
2854;SDS011;1435;49.472;10.940;2023-04-24T19:46:43;3.83;;;3.53;;
2854;SDS011;1435;49.472;10.940;2023-04-24T19:51:48;3.63;;;3.33;;
2854;SDS011;1435;49.472;10.940;2023-04-24T19:56:49;4.10;;;3.80;;
2854;SDS011;1435;49.472;10.940;2023-04-24T20:01:51;4.70;;;3.60;;
2854;SDS011;1435;49.472;10.940;2023-04-24T20:06:55;4.80;;;3.93;;
2854;SDS011;1435;49.472;10.940;2023-04-24T20:11:57;4.03;;;3.73;;
2854;SDS011;1435;49.472;10.940;2023-04-24T20:16:59;4.23;;;3.93;;
2854;SDS011;1435;49.472;10.940;2023-04-24T20:22:02;4.13;;;3.77;;
2854;SDS011;1435;49.472;10.940;2023-04-24T20:27:03;4.40;;;4.00;;
2854;SDS011;1435;49.472;10.940;2023-04-24T20:32:05;5.00;;;3.50;;
2854;SDS011;1435;49.472;10.940;2023-04-24T20:37:08;4.10;;;3.70;;
2854;SDS011;1435;49.472;10.940;2023-04-24T20:42:10;3.73;;;3.43;;
2854;SDS011;1435;49.472;10.940;2023-04-24T20:47:12;3.63;;;3.33;;
2854;SDS011;1435;49.472;10.940;2023-04-24T20:52:15;3.53;;;3.23;;
2854;SDS011;1435;49.472;10.940;2023-04-24T20:57:17;4.67;;;3.90;;
2854;SDS011;1435;49.472;10.940;2023-04-24T21:02:19;3.37;;;3.10;;
2854;SDS011;1435;49.472;10.940;2023-04-24T21:07:22;4.53;;;4.13;;
2854;SDS011;1435;49.472;10.940;2023-04-24T21:12:23;3.53;;;3.23;;
2854;SDS011;1435;49.472;10.940;2023-04-24T21:17:25;3.77;;;2.77;;
2854;SDS011;1435;49.472;10.940;2023-04-24T21:22:28;4.37;;;3.30;;
2854;SDS011;1435;49.472;10.940;2023-04-24T21:27:30;3.40;;;2.60;;
2854;SDS011;1435;49.472;10.940;2023-04-24T21:32:32;3.37;;;3.10;;
2854;SDS011;1435;49.472;10.940;2023-04-24T21:37:35;4.00;;;3.60;;
2854;SDS011;1435;49.472;10.940;2023-04-24T21:42:38;4.57;;;2.97;;
2854;SDS011;1435;49.472;10.940;2023-04-24T21:47:40;3.87;;;3.57;;
2854;SDS011;1435;49.472;10.940;2023-04-24T21:52:43;3.87;;;3.43;;
2854;SDS011;1435;49.472;10.940;2023-04-24T21:57:45;5.10;;;3.40;;
2854;SDS011;1435;49.472;10.940;2023-04-24T22:02:47;3.83;;;3.43;;
2854;SDS011;1435;49.472;10.940;2023-04-24T22:07:51;3.83;;;3.40;;
2854;SDS011;1435;49.472;10.940;2023-04-24T22:12:53;3.50;;;3.27;;
2854;SDS011;1435;49.472;10.940;2023-04-24T22:17:54;3.53;;;3.23;;
2854;SDS011;1435;49.472;10.940;2023-04-24T22:22:57;6.03;;;3.50;;
2854;SDS011;1435;49.472;10.940;2023-04-24T22:27:59;3.90;;;3.30;;
2854;SDS011;1435;49.472;10.940;2023-04-24T22:33:02;3.60;;;3.40;;
2854;SDS011;1435;49.472;10.940;2023-04-24T22:38:05;5.40;;;3.30;;
2854;SDS011;1435;49.472;10.940;2023-04-24T22:43:07;3.87;;;3.57;;
2854;SDS011;1435;49.472;10.940;2023-04-24T22:48:09;3.80;;;3.47;;
2854;SDS011;1435;49.472;10.940;2023-04-24T22:53:12;3.50;;;3.20;;
2854;SDS011;1435;49.472;10.940;2023-04-24T22:58:13;3.80;;;3.40;;
2854;SDS011;1435;49.472;10.940;2023-04-24T23:03:15;3.37;;;3.07;;
2854;SDS011;1435;49.472;10.940;2023-04-24T23:08:18;4.07;;;3.67;;
2854;SDS011;1435;49.472;10.940;2023-04-24T23:13:20;6.17;;;3.37;;
2854;SDS011;1435;49.472;10.940;2023-04-24T23:18:22;3.80;;;3.20;;
2854;SDS011;1435;49.472;10.940;2023-04-24T23:23:25;4.17;;;3.77;;
2854;SDS011;1435;49.472;10.940;2023-04-24T23:28:27;4.93;;;4.10;;
2854;SDS011;1435;49.472;10.940;2023-04-24T23:33:28;5.63;;;5.03;;
2854;SDS011;1435;49.472;10.940;2023-04-24T23:38:31;3.80;;;3.50;;
2854;SDS011;1435;49.472;10.940;2023-04-24T23:43:33;5.10;;;4.37;;
2854;SDS011;1435;49.472;10.940;2023-04-24T23:48:35;4.40;;;3.80;;
2854;SDS011;1435;49.472;10.940;2023-04-24T23:53:38;4.30;;;3.90;;
2854;SDS011;1435;49.472;10.940;2023-04-24T23:58:40;4.43;;;4.00;;
